Terminal Aerodrome Forecast
Issued by NWS

Home | Current Version | Previous Version | Text Only | Print | Product List | Glossary On
Versions: 1 2 3 4 5 6 7 8 9 10 11 12 13 14
000
FTUS42 KMLB 310852 AAB
TAFSUA
TAF AMD
KSUA 310852Z 3109/0106 14004KT P6SM VCSH SCT035 SCT250
     FM311200 13003KT P6SM VCSH SCT030
     FM311500 14008KT P6SM VCSH BKN035
     FM311700 11010KT P6SM VCSH BKN040
     FM312200 13009KT P6SM SCT040 BKN250=

USA.gov is the U.S. government's official web portal to all federal, state and local government web resources and services.